Time;durP1;ratioP1;P1;durP2;ratioP2;P2;SDS_P1;SDS_P2;PMS_P1;PMS_P2;Temp;Humidity;BMP_temperature;BMP_pressure;BME280_temperature;BME280_humidity;BME280_pressure;Samples;Min_cycle;Max_cycle;Signal;HPM_P1;HPM_P2
2022/04/25 00:01:25;;;;;;;20.08;17.92;;;6.70;99.90;;;5.75;100.00;96649.78;5076234;28;20048;-72
2022/04/25 00:03:53;;;;;;;21.25;17.77;;;6.70;99.90;;;5.82;100.00;96653.78;5078876;28;20052;-72
2022/04/25 00:06:20;;;;;;;17.60;15.40;;;6.70;99.90;;;5.79;100.00;96655.63;5078843;28;20127;-71
2022/04/25 00:08:47;;;;;;;19.17;17.20;;;6.70;99.90;;;5.73;100.00;96653.31;5073382;28;21043;-71
2022/04/25 00:11:14;;;;;;;22.48;20.00;;;6.70;99.90;;;5.52;100.00;96660.06;5079720;28;20044;-71
2022/04/25 00:13:41;;;;;;;20.55;18.00;;;6.50;99.90;;;5.60;100.00;96663.22;5081203;28;20139;-71
2022/04/25 00:16:08;;;;;;;20.20;17.33;;;6.50;99.90;;;5.70;100.00;96661.13;5080998;28;20079;-71
2022/04/25 00:18:35;;;;;;;19.63;15.35;;;6.50;99.90;;;5.81;100.00;96653.84;5078615;28;20512;-72
2022/04/25 00:21:02;;;;;;;18.67;15.65;;;6.50;99.90;;;5.76;100.00;96660.91;5079995;28;20056;-72
2022/04/25 00:23:30;;;;;;;19.23;15.55;;;6.50;99.90;;;5.92;100.00;96654.25;5079247;28;20044;-72
2022/04/25 00:25:57;;;;;;;17.45;14.52;;;6.50;99.90;;;5.92;100.00;96653.44;5076926;28;20052;-72
2022/04/25 00:28:25;;;;;;;19.25;16.80;;;6.50;99.90;;;5.64;100.00;96650.19;5080538;28;20156;-72
2022/04/25 00:30:52;;;;;;;24.17;20.52;;;6.60;99.90;;;5.39;100.00;96660.53;5076616;28;20154;-72
2022/04/25 00:33:19;;;;;;;22.27;18.73;;;6.50;99.90;;;5.45;100.00;96657.75;5062928;28;20048;-72
2022/04/25 00:35:46;;;;;;;17.67;15.07;;;6.50;99.90;;;5.61;100.00;96667.47;5078175;28;20056;-72
2022/04/25 00:38:13;;;;;;;22.55;19.30;;;6.50;99.90;;;5.53;100.00;96666.91;5077666;28;20052;-72
2022/04/25 00:40:41;;;;;;;24.63;19.75;;;6.40;99.90;;;5.50;100.00;96661.91;5074231;28;20043;-71
2022/04/25 00:43:08;;;;;;;19.77;17.08;;;6.40;99.90;;;5.28;100.00;96667.81;5076788;28;20075;-71
2022/04/25 00:45:36;;;;;;;22.20;18.25;;;6.40;99.90;;;5.19;100.00;96656.13;5077563;28;20155;-71
2022/04/25 00:48:04;;;;;;;22.60;18.90;;;6.30;99.90;;;5.26;100.00;96655.91;5078795;28;20398;-71
2022/04/25 00:50:32;;;;;;;21.45;18.98;;;6.30;99.90;;;5.18;100.00;96656.19;5079481;28;20127;-71
2022/04/25 00:52:59;;;;;;;22.17;17.90;;;6.20;99.90;;;5.38;100.00;96658.88;5088408;28;20091;-71
2022/04/25 00:55:27;;;;;;;22.23;17.00;;;6.20;99.90;;;5.53;100.00;96652.31;5076580;28;20086;-71
2022/04/25 00:57:57;;;;;;;23.55;19.25;;;6.20;99.90;;;5.74;100.00;96653.22;5077753;28;20105;-72
2022/04/25 01:00:25;;;;;;;24.30;19.38;;;6.30;99.90;;;5.75;100.00;96644.63;5078807;28;20052;-71
2022/04/25 01:02:52;;;;;;;22.17;17.15;;;6.40;99.90;;;5.76;100.00;96642.88;5077606;28;20055;-73
2022/04/25 01:05:20;;;;;;;22.02;19.35;;;6.40;99.90;;;5.69;100.00;96642.28;5079256;28;20093;-71
2022/04/25 01:07:47;;;;;;;21.05;17.80;;;6.40;99.90;;;5.42;100.00;96631.28;5071794;28;20044;-72
2022/04/25 01:10:14;;;;;;;23.90;19.77;;;6.30;99.90;;;5.27;100.00;96643.00;5077819;28;20140;-71
2022/04/25 01:12:41;;;;;;;21.38;17.85;;;6.30;99.90;;;5.31;100.00;96641.97;5079042;28;20041;-72
2022/04/25 01:15:11;;;;;;;25.35;19.17;;;6.20;99.90;;;5.46;100.00;96640.56;5082496;28;20079;-72
2022/04/25 01:17:40;;;;;;;23.85;19.77;;;6.30;99.90;;;5.56;100.00;96635.91;5082660;28;20338;-72
2022/04/25 01:20:09;;;;;;;25.65;20.15;;;6.30;99.90;;;5.58;100.00;96640.09;5086267;28;20437;-72
2022/04/25 01:22:49;;;;;;;22.83;17.02;;;6.30;99.90;;;5.55;100.00;96642.81;5078096;28;20036;-72
2022/04/25 01:28:02;;;;;;;23.08;17.73;;;6.40;99.90;;;5.64;100.00;96639.03;5082332;28;20546;-72
2022/04/25 01:30:32;;;;;;;20.98;16.40;;;6.40;99.90;;;5.75;100.00;96629.19;5083297;28;20048;-72
2022/04/25 01:32:59;;;;;;;19.13;16.17;;;6.50;99.90;;;5.38;100.00;96634.84;5083767;28;20048;-72
2022/04/25 01:35:27;;;;;;;20.90;16.60;;;6.40;99.90;;;5.52;100.00;96630.06;5082547;28;20127;-72
2022/04/25 01:37:53;;;;;;;17.30;15.48;;;6.40;99.90;;;5.39;100.00;96637.38;5079994;28;20520;-72
2022/04/25 01:40:20;;;;;;;17.20;15.20;;;6.30;99.90;;;5.57;100.00;96638.44;5083903;28;20444;-72
2022/04/25 01:42:47;;;;;;;16.77;14.48;;;6.30;99.90;;;5.75;100.00;96636.06;5077832;28;20080;-72
2022/04/25 01:45:14;;;;;;;18.95;16.80;;;6.30;99.90;;;5.75;100.00;96631.75;5077998;28;20049;-72
2022/04/25 01:47:41;;;;;;;21.60;18.77;;;6.40;99.90;;;5.70;100.00;96632.81;5081349;28;20132;-72
2022/04/25 01:50:08;;;;;;;20.75;16.45;;;6.40;99.90;;;5.77;100.00;96631.66;5085867;28;20747;-71
2022/04/25 01:52:35;;;;;;;20.40;17.60;;;6.40;99.90;;;5.64;100.00;96636.47;5082774;28;20850;-72
2022/04/25 01:55:04;;;;;;;29.42;23.55;;;6.40;99.90;;;5.08;100.00;96649.69;5079260;28;20605;-72
2022/04/25 01:57:31;;;;;;;25.98;22.63;;;6.40;99.90;;;4.86;100.00;96658.16;5077894;28;20127;-72
2022/04/25 01:59:58;;;;;;;28.33;25.40;;;6.30;99.90;;;4.69;100.00;96658.72;5080319;28;20116;-72
2022/04/25 02:02:25;;;;;;;27.95;25.00;;;6.30;99.90;;;4.90;100.00;96661.44;5082801;28;20080;-71
2022/04/25 02:04:53;;;;;;;30.63;26.90;;;6.30;99.90;;;4.96;100.00;96661.25;5081227;28;20395;-71
2022/04/25 02:07:20;;;;;;;22.08;19.77;;;6.30;99.90;;;5.36;100.00;96663.25;5078714;28;20565;-71
2022/04/25 02:09:47;;;;;;;22.30;19.92;;;6.40;99.90;;;5.52;100.00;96666.09;5083050;28;20046;-70
2022/04/25 02:12:15;;;;;;;29.20;26.17;;;6.40;99.90;;;4.96;100.00;96672.34;5080579;28;20052;-70
2022/04/25 02:14:43;;;;;;;31.17;27.95;;;6.50;99.90;;;4.79;100.00;96675.53;5082985;28;20425;-70
2022/04/25 02:17:10;;;;;;;31.33;28.02;;;6.40;99.90;;;4.72;100.00;96679.19;5080098;28;20048;-72
2022/04/25 02:19:40;;;;;;;24.52;22.02;;;6.30;99.90;;;5.03;100.00;96683.28;5079948;28;20080;-70
2022/04/25 02:22:09;;;;;;;23.98;21.35;;;6.30;99.90;;;5.25;100.00;96678.22;5080786;28;20433;-70
2022/04/25 02:24:37;;;;;;;23.40;20.92;;;6.40;99.90;;;5.48;100.00;96682.53;5081139;28;20652;-70
2022/04/25 02:27:06;;;;;;;26.90;24.08;;;6.50;99.90;;;5.45;100.00;96678.34;5089139;28;20136;-71
2022/04/25 02:29:38;;;;;;;22.98;20.67;;;6.50;99.90;;;5.66;100.00;96683.59;5077532;28;20082;-72
2022/04/25 02:32:07;;;;;;;22.65;20.38;;;6.60;99.90;;;5.79;100.00;96671.94;5079328;28;20196;-72
2022/04/25 02:34:34;;;;;;;21.98;19.80;;;6.70;99.90;;;5.70;100.00;96672.25;5078011;28;20409;-72
2022/04/25 02:37:02;;;;;;;26.30;23.70;;;6.80;99.90;;;5.62;100.00;96669.16;5080917;28;20048;-72
2022/04/25 02:39:29;;;;;;;27.60;24.65;;;6.80;99.90;;;5.47;100.00;96664.56;5083837;28;20121;-72
2022/04/25 02:41:56;;;;;;;26.80;23.90;;;6.80;99.90;;;5.56;100.00;96666.78;5080593;28;20405;-72
2022/04/25 02:44:23;;;;;;;22.98;20.58;;;6.80;99.90;;;5.58;100.00;96665.84;5078629;28;20577;-72
2022/04/25 02:46:50;;;;;;;21.98;19.70;;;6.70;99.90;;;5.70;100.00;96669.69;5081178;28;20171;-72
2022/04/25 02:49:17;;;;;;;22.55;20.10;;;6.80;99.90;;;5.84;100.00;96670.03;5079737;28;20123;-72
2022/04/25 02:51:44;;;;;;;24.52;22.02;;;6.80;99.90;;;5.58;100.00;96665.84;5085737;28;20072;-72
2022/04/25 02:54:12;;;;;;;23.92;21.52;;;6.60;99.90;;;5.45;100.00;96670.63;5082235;28;20044;-72
2022/04/25 02:56:39;;;;;;;25.20;22.58;;;6.60;99.90;;;5.36;100.00;96673.53;5077422;28;20060;-72
2022/04/25 02:59:07;;;;;;;22.00;19.80;;;6.40;99.90;;;5.58;100.00;96676.13;5080693;28;20052;-72
2022/04/25 03:01:34;;;;;;;23.20;20.70;;;6.40;99.90;;;5.61;100.00;96682.91;5084840;28;20048;-72
2022/04/25 03:04:02;;;;;;;21.13;18.92;;;6.40;99.90;;;5.63;100.00;96675.97;5081737;28;20052;-71
2022/04/25 03:06:30;;;;;;;22.55;20.25;;;6.40;99.90;;;5.70;100.00;96672.25;5081260;28;20080;-72
2022/04/25 03:08:57;;;;;;;24.17;21.33;;;6.50;99.90;;;5.80;100.00;96673.59;5082745;28;20147;-72
2022/04/25 03:11:25;;;;;;;25.25;22.48;;;6.60;99.90;;;5.79;100.00;96673.66;5082837;28;20066;-71
2022/04/25 03:13:55;;;;;;;24.35;21.85;;;6.70;99.90;;;5.70;100.00;96667.09;5079321;28;20506;-71
2022/04/25 03:16:23;;;;;;;23.02;20.63;;;6.70;99.90;;;5.77;100.00;96667.72;5079961;28;20075;-72
2022/04/25 03:18:50;;;;;;;19.55;17.50;;;6.60;99.90;;;5.75;100.00;96665.22;5077853;28;20048;-71
2022/04/25 03:21:17;;;;;;;21.70;19.42;;;6.50;99.90;;;5.70;100.00;96655.97;5078669;28;20060;-71
2022/04/25 03:23:44;;;;;;;25.98;23.00;;;6.60;99.90;;;5.42;100.00;96668.13;5080414;28;20056;-71
2022/04/25 03:26:11;;;;;;;22.42;20.15;;;6.50;99.90;;;5.42;100.00;96667.31;5083711;28;20124;-72
2022/04/25 03:28:38;;;;;;;20.00;17.77;;;6.50;99.90;;;5.67;100.00;96677.53;5077867;28;20064;-72
2022/04/25 03:31:06;;;;;;;25.42;22.83;;;6.50;99.90;;;5.58;100.00;96670.16;5080770;28;20130;-71
2022/04/25 03:33:37;;;;;;;26.95;24.13;;;6.60;99.90;;;5.38;100.00;96669.19;5076760;28;20056;-71
2022/04/25 03:36:04;;;;;;;34.25;30.52;;;6.60;99.90;;;5.09;100.00;96674.53;5078116;28;20056;-71
2022/04/25 03:38:32;;;;;;;26.15;23.45;;;6.60;99.90;;;5.34;100.00;96677.06;5080861;28;20445;-72
2022/04/25 03:40:59;;;;;;;27.80;24.85;;;6.60;99.90;;;5.14;100.00;96683.75;5079213;28;20485;-72
2022/04/25 03:43:27;;;;;;;30.20;26.98;;;6.60;99.90;;;5.09;100.00;96692.53;5079261;28;20130;-71
2022/04/25 03:45:55;;;;;;;29.80;26.50;;;6.50;99.90;;;4.93;100.00;96687.91;5077088;28;20532;-71
2022/04/25 03:48:22;;;;;;;23.80;21.35;;;6.50;99.90;;;5.19;100.00;96691.28;5080710;28;20064;-72
2022/04/25 03:50:49;;;;;;;25.80;23.10;;;6.40;99.90;;;5.33;100.00;96686.50;5079735;28;20443;-72
2022/04/25 03:53:16;;;;;;;27.05;24.13;;;6.40;99.90;;;5.28;100.00;96690.97;5077983;28;20071;-72
2022/04/25 03:58:30;;;;;;;21.65;19.35;;;6.50;99.90;;;5.72;100.00;96703.09;5080299;28;20040;-72
2022/04/25 04:00:58;;;;;;;26.30;23.52;;;6.50;99.90;;;5.55;100.00;96696.84;5078648;28;20077;-71
2022/04/25 04:03:25;;;;;;;26.63;23.80;;;6.70;99.90;;;5.33;100.00;96708.81;5076405;28;20130;-71
2022/04/25 04:05:54;;;;;;;31.27;27.98;;;6.60;99.90;;;5.30;100.00;96704.63;5063113;28;20048;-72
2022/04/25 04:08:21;;;;;;;31.80;26.92;;;6.60;99.90;;;5.17;100.00;96711.91;5079135;28;20462;-71
2022/04/25 04:10:48;;;;;;;35.72;29.38;;;6.60;99.90;;;5.15;100.00;96705.16;5080700;28;20944;-71
2022/04/25 04:13:15;;;;;;;33.03;27.52;;;6.50;99.90;;;5.29;100.00;96699.53;5080864;28;20108;-71
2022/04/25 04:15:43;;;;;;;29.40;26.10;;;6.50;99.90;;;5.41;100.00;96694.78;5079076;28;20625;-71
2022/04/25 04:18:10;;;;;;;31.85;28.48;;;6.50;99.90;;;5.29;100.00;96700.38;5082603;28;20124;-71
2022/04/25 04:20:37;;;;;;;30.10;26.88;;;6.50;99.90;;;5.37;100.00;96711.22;5078143;28;20143;-72
2022/04/25 04:23:05;;;;;;;30.92;27.63;;;6.60;99.90;;;5.26;100.00;96725.38;5081898;28;20129;-71
2022/04/25 04:25:32;;;;;;;31.55;28.17;;;6.60;99.90;;;5.16;100.00;96720.53;5079348;28;20050;-72
2022/04/25 04:28:00;;;;;;;34.38;30.73;;;6.50;99.90;;;5.17;100.00;96737.66;5076836;28;20127;-72
2022/04/25 04:30:27;;;;;;;33.47;29.90;;;6.50;99.90;;;5.01;100.00;96746.78;5082882;28;20131;-71
2022/04/25 04:32:54;;;;;;;32.58;29.05;;;6.40;99.90;;;5.10;100.00;96746.47;5076243;28;20041;-72
2022/04/25 04:38:07;;;;;;;33.17;28.90;;;6.30;99.90;;;5.07;100.00;96754.31;5086516;28;21033;-71
2022/04/25 04:40:34;;;;;;;25.92;23.13;;;6.20;99.90;;;5.27;100.00;96752.75;5081762;28;20090;-71
2022/04/25 04:43:03;;;;;;;25.50;22.15;;;6.20;99.90;;;5.48;100.00;96751.19;5079303;28;20114;-72
2022/04/25 04:45:30;;;;;;;31.80;28.38;;;6.30;99.90;;;5.28;100.00;96757.03;5078961;28;20124;-72
2022/04/25 04:47:57;;;;;;;37.42;33.38;;;6.40;99.90;;;5.15;100.00;96759.19;5074301;28;20054;-72
2022/04/25 04:50:25;;;;;;;34.78;29.52;;;6.40;99.90;;;5.17;100.00;96758.22;5079710;28;20504;-71
2022/04/25 04:52:57;;;;;;;34.72;30.42;;;6.40;99.90;;;5.12;99.74;96759.28;5076410;28;20119;-71
2022/04/25 04:55:24;;;;;;;29.95;26.00;;;6.40;99.90;;;5.32;99.16;96767.16;5079350;28;20040;-71
2022/04/25 04:57:53;;;;;;;25.05;22.45;;;6.40;99.90;;;5.47;99.09;96759.78;5080270;28;20122;-71
2022/04/25 05:00:21;;;;;;;37.22;33.30;;;6.40;99.90;;;5.39;99.16;96760.06;5085991;28;20126;-72
2022/04/25 05:02:49;;;;;;;33.88;30.25;;;6.50;99.90;;;5.36;99.21;96768.75;5080329;28;20066;-72
2022/04/25 05:05:16;;;;;;;39.53;33.97;;;6.50;99.90;;;5.35;99.08;96764.47;5082373;28;20183;-71
2022/04/25 05:07:43;;;;;;;29.67;26.48;;;6.40;99.90;;;5.37;99.06;96767.00;5083132;28;20108;-71
2022/04/25 05:10:11;;;;;;;37.53;31.80;;;6.50;99.90;;;5.24;98.96;96774.28;5077734;28;20501;-72
2022/04/25 05:12:56;;;;;;;36.85;32.80;;;6.50;99.90;;;5.28;98.17;96780.19;5075469;28;20875;-72
2022/04/25 05:15:23;;;;;;;27.05;24.17;;;6.50;99.90;;;5.70;97.52;96770.09;5082841;28;20040;-71
2022/04/25 05:17:53;;;;;;;31.50;26.83;;;6.60;99.90;;;6.00;97.44;96775.09;5076799;28;20052;-71
2022/04/25 05:20:23;;;;;;;40.20;34.60;;;6.70;99.90;;;5.92;97.92;96774.47;5081573;28;20049;-72
2022/04/25 05:22:52;;;;;;;41.45;37.00;;;6.80;99.90;;;5.64;98.19;96772.91;5081203;28;20662;-72
2022/04/25 05:25:22;;;;;;;39.80;35.30;;;6.80;99.90;;;5.43;98.08;96775.34;5078456;28;20048;-72
2022/04/25 05:27:54;;;;;;;42.22;36.25;;;6.80;99.90;;;5.27;97.73;96781.94;5080760;28;20062;-70
2022/04/25 05:30:24;;;;;;;38.13;33.53;;;6.80;99.90;;;5.29;97.16;96787.00;5076439;28;20472;-71
2022/04/25 05:32:57;;;;;;;43.78;37.63;;;6.70;99.90;;;5.27;96.60;96787.06;5080454;28;20153;-71
2022/04/25 05:35:27;;;;;;;38.13;33.78;;;6.70;99.90;;;5.33;96.33;96798.88;5072392;28;20063;-71
2022/04/25 05:37:55;;;;;;;39.65;34.55;;;6.70;99.90;;;5.40;96.03;96793.47;5075160;28;20178;-72
2022/04/25 05:40:23;;;;;;;35.45;31.65;;;6.80;99.90;;;5.55;95.88;96802.41;5072986;28;20135;-72
2022/04/25 05:42:52;;;;;;;36.25;32.53;;;6.80;99.90;;;5.64;95.81;96816.69;5077647;28;20504;-71
2022/04/25 05:45:21;;;;;;;33.38;29.58;;;6.80;99.90;;;5.96;95.79;96813.00;5078646;28;20127;-72
2022/04/25 05:47:50;;;;;;;27.98;24.98;;;7.00;99.90;;;6.36;95.82;96814.06;5078358;28;20165;-72
2022/04/25 05:53:04;;;;;;;28.20;24.13;;;7.30;99.90;;;6.52;96.66;96809.16;5076569;28;20040;-72
2022/04/25 05:55:32;;;;;;;34.88;31.10;;;7.50;99.90;;;6.27;97.01;96809.25;5076973;28;20060;-71
2022/04/25 05:58:02;;;;;;;35.22;30.45;;;7.60;99.90;;;6.20;97.01;96813.84;5063987;28;20136;-71
2022/04/25 06:00:30;;;;;;;30.88;27.75;;;7.70;99.90;;;6.60;96.83;96819.19;5072369;28;20312;-71
2022/04/25 06:02:58;;;;;;;27.88;24.98;;;7.80;99.90;;;6.87;97.24;96822.44;5079671;28;20056;-71
2022/04/25 06:05:27;;;;;;;30.45;27.42;;;7.90;99.90;;;7.05;97.96;96816.53;5080215;28;20124;-71
2022/04/25 06:07:55;;;;;;;29.92;26.85;;;8.00;99.90;;;7.31;98.57;96819.78;5081042;28;20135;-72
2022/04/25 06:10:23;;;;;;;31.83;28.63;;;8.20;99.90;;;7.49;99.39;96815.59;5083598;28;20127;-70
2022/04/25 06:12:52;;;;;;;29.48;26.25;;;8.40;99.90;;;7.68;100.00;96825.97;5077816;28;20044;-72
2022/04/25 06:15:24;;;;;;;25.30;21.90;;;8.60;99.90;;;7.80;100.00;96819.41;5078671;28;20421;-70
2022/04/25 06:17:56;;;;;;;26.35;22.63;;;8.70;99.90;;;7.37;100.00;96819.53;5079341;28;20052;-72
2022/04/25 06:20:23;;;;;;;27.63;22.50;;;8.80;99.90;;;7.72;100.00;96825.75;5080662;28;20522;-70
2022/04/25 06:22:56;;;;;;;28.00;20.77;;;8.80;99.90;;;7.82;100.00;96817.59;5077056;28;20048;-72
2022/04/25 06:25:26;;;;;;;25.67;22.88;;;9.00;99.90;;;7.82;100.00;96817.59;5076263;28;20040;-72
2022/04/25 06:27:54;;;;;;;23.77;19.88;;;9.10;99.90;;;7.78;100.00;96822.09;5080961;28;20123;-71
2022/04/25 06:30:23;;;;;;;28.50;22.20;;;9.20;99.90;;;7.75;100.00;96825.66;5082656;28;20072;-70
2022/04/25 06:32:52;;;;;;;28.02;23.65;;;9.20;99.90;;;7.82;100.00;96826.19;5079509;28;20044;-70
2022/04/25 06:35:20;;;;;;;24.05;19.60;;;9.20;99.90;;;8.16;100.00;96829.88;5078464;28;20056;-70
2022/04/25 06:37:49;;;;;;;19.90;17.63;;;9.30;99.90;;;8.32;100.00;96815.34;5077579;28;20117;-72
2022/04/25 06:40:17;;;;;;;21.85;18.00;;;9.40;99.90;;;8.43;100.00;96827.81;5080512;28;20422;-72
2022/04/25 06:42:46;;;;;;;20.40;17.58;;;9.60;99.90;;;8.43;100.00;96822.66;5078538;28;20056;-72
2022/04/25 06:45:15;;;;;;;21.38;17.05;;;9.80;99.90;;;8.79;100.00;96812.31;5077495;28;20120;-72
2022/04/25 06:47:42;;;;;;;18.50;16.50;;;10.00;99.90;;;8.71;100.00;96811.88;5079499;28;20046;-72
2022/04/25 06:50:10;;;;;;;18.55;16.02;;;10.10;99.90;;;9.11;100.00;96804.75;5079504;28;20501;-72
2022/04/25 06:52:38;;;;;;;19.63;15.45;;;10.30;99.90;;;8.71;100.00;96801.53;5078894;28;20134;-72
2022/04/25 06:55:06;;;;;;;23.75;18.00;;;10.30;99.90;;;8.79;100.00;96808.91;5079649;28;20081;-72
2022/04/25 06:57:33;;;;;;;19.27;16.38;;;10.40;99.90;;;8.99;100.00;96803.59;5078572;28;21844;-72
2022/04/25 07:00:08;;;;;;;20.00;17.42;;;10.50;99.90;;;8.75;100.00;96810.78;5078649;28;20509;-72
2022/04/25 07:02:55;;;;;;;20.52;17.50;;;10.50;99.90;;;8.67;100.00;96815.50;5078853;28;20062;-72
2022/04/25 07:05:24;;;;;;;21.23;18.92;;;10.50;99.90;;;8.84;100.00;96812.09;5077336;28;20048;-72
2022/04/25 07:07:51;;;;;;;17.60;15.70;;;10.50;99.90;;;8.91;100.00;96804.88;5079116;28;20052;-72
2022/04/25 07:10:19;;;;;;;18.55;14.73;;;10.50;99.90;;;9.32;100.00;96802.84;5078741;28;20040;-72
2022/04/25 07:12:46;;;;;;;15.70;13.07;;;10.60;99.90;;;9.86;100.00;96805.31;5078863;28;20043;-72
2022/04/25 07:15:13;;;;;;;15.50;13.18;;;10.70;99.90;;;9.83;100.00;96798.53;5083510;28;20062;-72
2022/04/25 07:17:40;;;;;;;15.88;13.10;;;10.90;99.90;;;9.88;100.00;96800.88;5080520;28;20474;-72
2022/04/25 07:20:08;;;;;;;20.85;15.98;;;11.00;99.90;;;9.34;100.00;96806.19;5081720;28;20134;-72
2022/04/25 07:30:52;;;;;;;26.45;20.35;;;10.50;99.90;;;9.28;100.00;96810.84;5075513;28;20127;-72
2022/04/25 07:33:19;;;;;;;21.75;19.23;;;10.60;99.90;;;9.43;100.00;96805.72;5076554;28;20573;-72
2022/04/25 07:35:46;;;;;;;22.02;18.90;;;10.70;99.90;;;9.74;100.00;96811.97;5079174;28;20452;-72
2022/04/25 07:38:13;;;;;;;20.20;17.95;;;10.80;99.90;;;9.75;100.00;96807.63;5079526;28;20044;-72
2022/04/25 07:40:41;;;;;;;21.85;18.98;;;10.80;99.90;;;9.75;100.00;96807.63;5079773;28;20048;-72
2022/04/25 07:43:10;;;;;;;21.35;18.13;;;11.00;99.90;;;10.15;100.00;96806.38;5081379;28;20062;-72
2022/04/25 07:45:37;;;;;;;21.65;18.88;;;11.20;99.90;;;10.02;100.00;96798.41;5080410;28;20123;-72
2022/04/25 07:48:05;;;;;;;22.42;18.80;;;11.30;99.90;;;10.32;100.00;96802.06;5078591;28;20058;-71
2022/04/25 07:50:34;;;;;;;22.08;19.33;;;11.40;99.90;;;10.38;100.00;96799.97;5081999;28;20048;-72
2022/04/25 07:53:01;;;;;;;21.02;17.50;;;11.50;99.90;;;10.67;100.00;96798.38;5075589;28;20931;-72
2022/04/25 07:55:29;;;;;;;23.27;17.33;;;11.70;99.90;;;10.54;100.00;96797.38;5077521;28;20056;-71
2022/04/25 07:57:56;;;;;;;19.90;15.80;;;11.70;99.90;;;10.58;100.00;96782.47;5081514;28;20420;-72
2022/04/25 08:00:24;;;;;;;17.38;15.48;;;11.80;99.90;;;10.71;100.00;96788.66;5076794;28;20056;-72
2022/04/25 08:02:51;;;;;;;19.13;14.88;;;11.90;99.90;;;10.99;100.00;96789.69;5080394;28;20056;-72
2022/04/25 08:05:18;;;;;;;17.23;13.73;;;12.10;99.90;;;11.23;100.00;96787.47;5078810;28;20037;-72
2022/04/25 08:07:45;;;;;;;17.02;14.20;;;12.40;99.90;;;11.61;100.00;96776.56;5077677;28;20151;-72
2022/04/25 08:10:12;;;;;;;13.38;11.15;;;12.70;99.90;;;12.29;100.00;96770.72;5079335;28;20066;-72
2022/04/25 08:18:12;;;;;;;13.05;10.13;;;13.90;99.90;;;13.15;100.00;96773.06;5080377;28;20063;-72
2022/04/25 08:20:39;;;;;;;14.20;10.98;;;14.10;99.90;;;12.76;100.00;96775.53;5076992;28;20087;-72
2022/04/25 08:23:12;;;;;;;12.25;10.00;;;14.20;99.90;;;13.26;100.00;96769.75;5077930;28;20098;-71
2022/04/25 08:25:41;;;;;;;14.55;12.43;;;14.10;99.90;;;13.05;100.00;96764.19;5062032;28;20043;-71
2022/04/25 08:28:10;;;;;;;13.38;11.43;;;14.20;99.90;;;12.96;100.00;96774.25;5078776;28;20135;-71
2022/04/25 08:30:37;;;;;;;13.82;12.35;;;14.20;99.90;;;13.10;100.00;96772.53;5073793;28;20139;-71
2022/04/25 08:33:05;;;;;;;13.45;11.80;;;14.10;99.90;;;12.98;100.00;96781.97;5078768;28;20894;-71
2022/04/25 08:35:32;;;;;;;13.68;12.10;;;14.10;99.90;;;13.33;100.00;96773.63;5078170;28;20127;-71
2022/04/25 08:37:59;;;;;;;14.23;11.10;;;14.20;99.90;;;13.60;100.00;96774.41;5077009;28;20150;-71
2022/04/25 08:40:26;;;;;;;11.55;10.10;;;14.30;99.90;;;13.24;100.00;96787.25;5079012;28;20044;-71
2022/04/25 08:42:54;;;;;;;12.52;10.13;;;14.50;99.90;;;13.26;100.00;96785.38;5076636;28;20166;-71
2022/04/25 08:45:22;;;;;;;13.50;10.90;;;14.60;99.90;;;13.48;100.00;96787.41;5060915;28;20055;-71
2022/04/25 08:47:54;;;;;;;11.30;10.10;;;14.60;99.90;;;13.66;100.00;96785.34;5076006;28;20047;-71
2022/04/25 08:50:22;;;;;;;11.63;10.40;;;14.60;99.90;;;13.04;100.00;96789.38;5075459;28;20145;-72
2022/04/25 08:52:51;;;;;;;13.07;11.63;;;14.40;99.90;;;12.94;100.00;96791.75;5074460;28;20575;-71
2022/04/25 08:55:19;;;;;;;10.98;9.57;;;14.20;99.90;;;13.50;100.00;96791.59;5071619;28;20075;-71
2022/04/25 08:57:48;;;;;;;11.88;9.50;;;14.60;99.90;;;14.77;100.00;96791.56;5075609;28;20546;-72
2022/04/25 09:00:15;;;;;;;14.50;11.63;;;15.20;99.90;;;13.92;100.00;96789.63;5077093;28;20067;-72
2022/04/25 09:02:47;;;;;;;15.50;10.63;;;15.10;99.90;;;13.96;100.00;96788.47;5080000;28;20094;-71
2022/04/25 09:05:15;;;;;;;17.77;10.88;;;15.10;99.90;;;14.51;100.00;96793.41;5078147;28;20049;-71
2022/04/25 09:07:43;;;;;;;14.23;11.55;;;15.60;99.90;;;13.72;100.00;96783.16;5075211;28;20505;-72
2022/04/25 09:10:18;;;;;;;11.65;9.82;;;15.70;99.90;;;14.58;100.00;96779.00;5080317;28;20646;-72
2022/04/25 09:13:02;;;;;;;12.52;9.05;;;;;;;16.55;100.00;96774.66;5074472;28;20072;-72
2022/04/25 09:15:31;;;;;;;11.57;10.23;;;;;;;16.42;100.00;96777.41;5074438;28;20546;-71
2022/04/25 09:17:59;;;;;;;10.10;9.10;;;;;;;17.18;100.00;96764.38;5075031;28;20052;-71
2022/04/25 09:20:27;;;;;;;9.88;7.55;;;;;;;18.17;100.00;96769.13;5070898;28;20063;-71
2022/04/25 09:22:54;;;;;;;10.98;8.25;;;;;;;17.40;100.00;96771.28;5077009;28;20537;-72
2022/04/25 09:25:23;;;;;;;8.27;7.40;;;;;;;17.24;100.00;96771.72;5071835;28;20518;-72
2022/04/25 09:28:13;;;;;;;9.02;8.13;;;;;;;16.88;100.00;96781.66;5072824;28;20533;-72
2022/04/25 09:31:00;;;;;;;9.02;7.38;;;;;;;16.22;100.00;96771.97;5077586;28;20575;-72
2022/04/25 09:33:28;;;;;;;10.73;8.35;;;;;;;15.65;100.00;96778.94;5076194;28;20053;-71
2022/04/25 09:35:56;;;;;;;9.93;8.57;;;;;;;14.95;100.00;96787.59;5078257;28;20089;-71
2022/04/25 09:38:32;;;;;;;10.88;9.52;;;;;;;14.67;100.00;96793.19;5081297;28;20043;-72
2022/04/25 09:41:01;;;;;;;10.52;9.18;;;;;;;13.41;100.00;96794.81;5081284;28;20147;-71
2022/04/25 09:43:30;;;;;;;12.45;11.15;;;;;;;12.74;100.00;96810.41;5080076;28;20048;-71
2022/04/25 09:46:07;;;;;;;12.23;9.65;;;;;;;13.05;100.00;96819.72;5079743;28;20063;-71
2022/04/25 09:48:36;;;;;;;11.80;10.30;;;;;;;13.02;100.00;96824.28;5081975;28;20063;-71
2022/04/25 09:51:06;;;;;;;12.88;10.60;;;;;;;12.90;100.00;96833.72;5079580;28;20184;-71
2022/04/25 09:53:46;;;;;;;13.25;10.98;;;;;;;11.43;100.00;96862.50;5079387;28;20052;-71
2022/04/25 09:56:16;;;;;;;13.77;12.27;;;;;;;11.17;100.00;96876.94;5081872;28;20049;-71
2022/04/25 09:58:56;;;;;;;21.38;14.10;;;;;;;10.43;100.00;96893.97;5078822;28;20097;-71
2022/04/25 10:01:24;;;;;;;14.07;11.73;;;;;;;9.69;100.00;96911.56;5075523;28;20062;-70
2022/04/25 10:03:51;;;;;;;13.63;10.23;;;;;;;9.33;100.00;96920.25;5079568;28;20639;-70
2022/04/25 10:06:22;;;;;;;5.22;3.30;;;;;;;8.65;100.00;96894.09;5079680;28;20512;-70
2022/04/25 10:08:50;;;;;;;8.75;4.00;;;;;;;8.50;100.00;96904.22;5082176;28;20391;-70
2022/04/25 10:11:19;;;;;;;12.88;7.20;;;;;;;8.40;100.00;96921.06;5076630;28;20540;-71
2022/04/25 10:13:48;;;;;;;7.60;5.45;;;;;;;8.44;100.00;96926.91;5077794;28;20523;-71
2022/04/25 10:16:20;;;;;;;9.48;5.75;;;;;;;8.58;100.00;96929.75;5081213;28;20421;-71
2022/04/25 10:18:48;;;;;;;8.15;5.93;;;;;;;8.54;100.00;96923.88;5079175;28;20519;-72
2022/04/25 10:21:15;;;;;;;11.50;10.05;;;;;;;8.57;100.00;96946.16;5082802;28;20753;-72
2022/04/25 10:23:45;;;;;;;9.35;6.68;;;;;;;8.64;100.00;96949.31;5078022;28;20178;-72
2022/04/25 10:26:12;;;;;;;9.82;7.75;;;;;;;8.98;100.00;96940.84;5081083;28;20068;-72
2022/04/25 10:28:52;;;;;;;11.95;9.23;;;;;;;9.00;100.00;96963.16;5082224;28;20566;-72
2022/04/25 10:31:38;;;;;;;11.80;8.45;;;;;;;8.91;100.00;96970.53;5076827;28;20875;-72
2022/04/25 10:34:06;;;;;;;10.27;7.60;;;;;;;9.12;100.00;96971.28;5076759;28;20423;-72
2022/04/25 10:36:37;;;;;;;10.40;8.15;;;;;;;9.17;100.00;96970.16;5074378;28;20083;-72
2022/04/25 10:39:24;;;;;;;11.43;7.03;;;;;;;9.18;100.00;96977.00;5080690;28;20678;-72
2022/04/25 10:44:42;;;;;;;9.90;7.85;;;;;;;9.42;100.00;96972.44;5080705;28;20140;-72
2022/04/25 10:47:20;;;;;;;9.10;7.30;;;;;;;9.72;100.00;96961.50;5078092;28;20036;-72
2022/04/25 10:49:52;;;;;;;8.65;6.35;;;;;;;11.23;100.00;96967.53;5081028;28;20127;-72
2022/04/25 10:52:42;;;;;;;7.30;6.35;;;;;;;12.85;100.00;96945.19;5081267;28;20136;-71
2022/04/25 10:55:23;;;;;;;6.95;4.32;;;;;;;13.54;100.00;96907.78;5075137;28;20079;-71
2022/04/25 10:58:02;;;;;;;7.05;3.28;;;;;;;14.36;100.00;96887.50;5077906;28;20522;-71